Novoselenginsk, Russia
Current Conditions -  °F | °C
As of 1:00 PM on Thursday 23 Oct 2014 (Local Time) from UIUU Reporting Station
Broken Clouds Broken Clouds  
Wind Chill: 38°   Ceiling: 4000
Heat Index: 41°   Visibility: 6mi
Dew Point: 30°   Wind: 4mph
Humidity: 65%   Direction: 140°SE
Pressure: 29.88"   Gusts: NA
Location:  51.09°N, 106.63°E
Report Text: UIUU 230500Z 14002MPS 060V190 9999 BKN040CB 05/M01 Q1012 NOSIGRMK QFE715/0953 26CLRD60
Loading
Personal Weather Stations






























Interactive Weather Map
Tropical Storm Tracking
New forecast layout! Learn more

10-Day Weather Forecast

Advertisements
Track Severe Weather on mobile